»·PEaware :: N134RX L52-L88

N134RX :: L52-L88

FLIGHT INFORMATION

Flight Status: Arrived
Operator: Privately registered:
United States
More flights under this callsign
Pilot: Christopher M. (23411)
Aircraft: CESSNA 172 SKYHAWK
(C172)
More flights by this aircraft type
Origin: L52 Oceano Co
United States
Destination: L88 New Cuyama
United States
More flights between these airports :: More routes between these airports
Route:
File this flight plan on PilotEdge
Remarks: First flight
Altitude:
(Current/Filed)
5,500ft
Speed:
(Current/Filed)
115kts
Departed: 06-Feb-19 06:58 PM
Arrived: 06-Feb-19 07:55 PM
Distance/Time
Traveled:
25nm/0:57
Distance/Time
To Go:
Arrived

Flight Plot

Page will automatically refresh every two minutes.


Map Options




Map Legend


Flown Route
Filed Route
Departure Airport
Arrival Airport
Navaid (VOR, NDB)
Fix

Horizontal Profiles

Position Reports

Time Latitude Longitude Heading Altitude Ground
Speed
06-Feb-19 18:45 34.942853 -119.690285 204 2155ft 0kts
06-Feb-19 18:46 34.942853 -119.690285 204 2155ft 0kts
06-Feb-19 18:47 34.942853 -119.690285 204 2155ft 0kts
06-Feb-19 18:48 34.942831 -119.690296 192 2155ft 0kts
06-Feb-19 18:49 34.942698 -119.690463 237 2154ft 7kts
06-Feb-19 18:50 34.942690 -119.691192 206 2151ft 0kts
06-Feb-19 18:51 34.943921 -119.690797 202 2153ft 0kts
06-Feb-19 18:52 34.943921 -119.690797 202 2153ft 0kts
06-Feb-19 18:53 34.942405 -119.691114 152 2152ft 15kts
06-Feb-19 18:54 34.939584 -119.684664 116 2177ft 27kts
06-Feb-19 18:55 34.937721 -119.680171 293 2195ft 0kts
06-Feb-19 18:56 34.937721 -119.680170 293 2195ft 0kts
06-Feb-19 18:57 34.941223 -119.689007 295 2448ft 62kts
06-Feb-19 18:58 34.951666 -119.709900 307 3211ft 81kts
06-Feb-19 18:59 34.965185 -119.732545 299 4170ft 89kts
06-Feb-19 19:00 34.973328 -119.762481 280 5019ft 95kts
06-Feb-19 19:01 34.978495 -119.794966 289 5770ft 101kts
06-Feb-19 19:02 34.988069 -119.827822 288 6404ft 107kts
06-Feb-19 19:03 34.999252 -119.865617 289 6579ft 127kts
06-Feb-19 19:04 35.011685 -119.907914 289 6484ft 134kts
06-Feb-19 19:05 35.024635 -119.949731 292 6511ft 126kts
06-Feb-19 19:06 35.037522 -119.989239 291 6498ft 120kts
06-Feb-19 19:07 35.050195 -120.027161 291 6539ft 121kts
06-Feb-19 19:08 35.061964 -120.065692 290 6593ft 121kts
06-Feb-19 19:09 35.074867 -120.104242 292 6572ft 124kts
06-Feb-19 19:10 35.086711 -120.144071 289 6484ft 125kts
06-Feb-19 19:11 35.097811 -120.183401 287 6528ft 121kts
06-Feb-19 19:12 35.108484 -120.222852 290 6524ft 123kts
06-Feb-19 19:13 35.120585 -120.261837 291 6510ft 123kts
06-Feb-19 19:14 35.133736 -120.300638 291 6477ft 124kts
06-Feb-19 19:15 35.146051 -120.338130 290 6442ft 116kts
06-Feb-19 19:16 35.157895 -120.375450 292 6116ft 123kts
06-Feb-19 19:17 35.169555 -120.415306 291 5416ft 122kts
06-Feb-19 19:18 35.181881 -120.453608 291 4825ft 122kts
06-Feb-19 19:19 35.193401 -120.492593 288 4052ft 125kts
06-Feb-19 19:20 35.202001 -120.532555 278 3310ft 121kts
06-Feb-19 19:21 35.205361 -120.573311 273 2134ft 122kts
06-Feb-19 19:22 35.218096 -120.607771 307 816ft 92kts
06-Feb-19 19:23 35.230969 -120.629806 306 323ft 73kts
06-Feb-19 19:24 35.237424 -120.639931 5 216ft 0kts
06-Feb-19 19:25 35.237494 -120.639916 13 216ft 0kts
06-Feb-19 19:26 35.237494 -120.639916 13 216ft 0kts
06-Feb-19 19:27 35.238365 -120.639978 82 216ft 0kts
06-Feb-19 19:28 35.238365 -120.639978 82 216ft 0kts
06-Feb-19 19:29 35.238365 -120.639978 82 216ft 0kts
06-Feb-19 19:30 35.238365 -120.639978 82 216ft 0kts
06-Feb-19 19:31 35.238365 -120.639978 82 216ft 0kts
06-Feb-19 19:32 35.238365 -120.639978 82 216ft 0kts
06-Feb-19 19:33 35.238365 -120.639978 82 216ft 0kts
06-Feb-19 19:34 35.238365 -120.639978 82 216ft 0kts
06-Feb-19 19:35 35.238365 -120.639978 82 216ft 0kts
06-Feb-19 19:37 35.238365 -120.639978 82 216ft 0kts
06-Feb-19 19:38 35.238365 -120.639978 82 216ft 0kts
06-Feb-19 19:39 35.238365 -120.639978 82 216ft 0kts
06-Feb-19 19:40 35.238365 -120.639978 82 216ft 0kts
06-Feb-19 19:41 35.238365 -120.639978 82 216ft 0kts
06-Feb-19 19:55 34.937652 -119.679968 296 2195ft 0kts
06-Feb-19 19:55 34.939186 -119.683725 296 2184ft 68kts
06-Feb-19 19:57 34.944193 -119.713380 268 3065ft 102kts
06-Feb-19 19:58 34.949392 -119.748459 284 3814ft 102kts
06-Feb-19 19:58 34.949460 -119.781811 295 3942ft 117kts
06-Feb-19 19:59 34.970678 -119.811753 304 4068ft 122kts
06-Feb-19 20:00 34.966196 -119.847997 270 4490ft 108kts
06-Feb-19 20:02 34.990497 -119.882854 317 4244ft 128kts
06-Feb-19 20:02 35.007484 -119.909730 307 4056ft 112kts
06-Feb-19 20:03 35.026974 -119.942134 306 4059ft 122kts
06-Feb-19 20:04 35.044132 -119.968538 312 4045ft 108kts
06-Feb-19 20:05 35.045601 -119.970605 309 4008ft 111kts
06-Feb-19 20:06 35.058060 -120.002317 292 4194ft 114kts
06-Feb-19 20:07 35.068192 -120.039284 276 4559ft 123kts
06-Feb-19 20:08 35.073474 -120.079628 270 4554ft 115kts
06-Feb-19 20:09 35.077187 -120.118647 286 4480ft 117kts

Navigation Log

Ident Type
Flight plan parsing failed, navigation log unavailable